Coxim, Brazil
Current Conditions -  °F | °C
As of 8:00 AM on Thursday 27 Nov 2014 (Local Time) from SBCG Reporting Station
Broken Clouds Broken Clouds  
Wind Chill: 72°   Ceiling: 1100
Heat Index: 72°   Visibility: 6mi
Dew Point: 68°   Wind: 9mph
Humidity: 88%   Direction: 340°NNW
Pressure: 29.91"   Gusts: NA
Location:  18.5°S, 54.75°W
Report Text: SBCG 271100Z 34008KT 9999 FEW008 BKN011 22/20 Q1013
Loading
Personal Weather Stations






























Interactive Weather Map New forecast layout! Learn more

10-Day Weather Forecast

Advertisements
Track Severe Weather on mobile